Time;durP1;ratioP1;P1;durP2;ratioP2;P2;SDS_P1;SDS_P2;PMS_P1;PMS_P2;Temp;Humidity;BMP_temperature;BMP_pressure;BME280_temperature;BME280_humidity;BME280_pressure;Samples;Min_cycle;Max_cycle;Signal;HPM_P1;HPM_P2
2022/07/07 00:00:25;;;;;;;8.80;3.30;;;;;;;25.60;40.30;99096.86;25053;1313;3027304;-66
2022/07/07 00:02:54;;;;;;;10.80;3.20;;;;;;;25.59;40.29;99093.86;25122;1312;3057964;-65
2022/07/07 00:05:23;;;;;;;10.50;3.40;;;;;;;25.57;40.73;99090.90;25079;1313;3026616;-69
2022/07/07 00:07:52;;;;;;;14.90;3.40;;;;;;;25.53;40.67;99086.09;25102;1313;3053935;-65
2022/07/07 00:10:21;;;;;;;14.30;3.60;;;;;;;25.49;40.90;99084.65;25076;1313;3026521;-67
2022/07/07 00:12:51;;;;;;;11.50;3.20;;;;;;;25.43;41.06;99086.02;25058;1316;3027040;-66
2022/07/07 00:15:21;;;;;;;15.70;3.50;;;;;;;25.43;41.10;99081.20;25078;1313;3026508;-67
2022/07/07 00:17:50;;;;;;;7.40;3.40;;;;;;;25.41;41.22;99079.94;25200;1312;3026489;-64
2022/07/07 00:20:19;;;;;;;15.60;3.30;;;;;;;25.39;41.25;99083.70;25094;1313;3051465;-66
2022/07/07 00:22:49;;;;;;;12.10;3.40;;;;;;;25.39;41.29;99085.77;25068;1315;3026131;-64
2022/07/07 00:25:18;;;;;;;8.20;3.20;;;;;;;25.32;41.65;99083.14;25103;1316;3058135;-67
2022/07/07 00:27:47;;;;;;;18.40;3.10;;;;;;;25.28;41.66;99083.11;25049;1316;3026231;-67
2022/07/07 00:30:16;;;;;;;6.60;3.00;;;;;;;25.25;41.71;99080.27;25107;1316;3054030;-63
2022/07/07 00:32:45;;;;;;;6.40;2.90;;;;;;;25.22;41.70;99079.85;25066;1316;3026698;-64
2022/07/07 00:35:14;;;;;;;8.30;3.30;;;;;;;25.20;41.60;99084.22;25104;1315;3054185;-63
2022/07/07 00:37:43;;;;;;;12.40;3.30;;;;;;;25.18;41.73;99084.32;25067;1316;3029590;-65
2022/07/07 00:40:12;;;;;;;9.40;3.30;;;;;;;25.17;41.81;99089.08;25126;1316;3027796;-66
2022/07/07 00:42:41;;;;;;;6.30;3.00;;;;;;;25.15;41.73;99088.08;25059;1316;3054376;-63
2022/07/07 00:45:10;;;;;;;10.30;2.90;;;;;;;25.13;41.77;99089.02;25114;1316;3026722;-64
2022/07/07 00:47:40;;;;;;;8.90;3.30;;;;;;;25.13;41.78;99087.77;25056;1316;3051427;-67
2022/07/07 00:50:10;;;;;;;7.10;3.00;;;;;;;25.12;41.76;99086.61;25118;1316;3027859;-67
2022/07/07 00:52:39;;;;;;;7.60;3.00;;;;;;;25.14;41.78;99088.40;25070;1316;3026749;-63
2022/07/07 00:55:08;;;;;;;14.00;3.30;;;;;;;25.10;41.94;99091.88;25127;1316;3026543;-67
2022/07/07 00:57:38;;;;;;;6.70;3.50;;;;;;;25.10;41.92;99091.52;25184;1316;3054657;-63
2022/07/07 01:00:13;;;;;;;8.40;2.80;;;;;;;25.12;41.87;99092.60;25484;1316;3026479;-63
2022/07/07 01:02:43;;;;;;;12.80;2.80;;;;;;;25.13;41.85;99088.31;25542;1316;3056244;-64
2022/07/07 01:05:12;;;;;;;9.40;3.30;;;;;;;25.10;41.98;99096.89;25400;1316;3026441;-66
2022/07/07 01:07:43;;;;;;;15.10;3.60;;;;;;;25.11;42.01;99098.25;25124;1316;3026741;-65
2022/07/07 01:10:12;;;;;;;14.60;3.10;;;;;;;25.11;41.96;99097.02;25147;1316;3026601;-70
2022/07/07 01:12:41;;;;;;;13.30;3.40;;;;;;;25.11;42.00;99094.21;25083;1315;3051556;-67
2022/07/07 01:15:12;;;;;;;9.90;3.60;;;;;;;25.13;41.99;99097.95;25061;1316;3026993;-68
2022/07/07 01:17:41;;;;;;;11.40;3.20;;;;;;;25.14;41.92;99097.33;25078;1316;3026331;-69
2022/07/07 01:20:11;;;;;;;10.80;3.20;;;;;;;25.15;41.86;99098.48;25092;1316;3026736;-70
2022/07/07 01:22:50;;;;;;;9.80;3.40;;;;;;;25.12;41.82;99095.17;25131;1316;3027572;-67
2022/07/07 01:25:19;;;;;;;16.10;3.20;;;;;;;25.10;41.93;99097.40;25055;1316;3054885;-65
2022/07/07 01:27:50;;;;;;;8.60;2.90;;;;;;;25.07;41.93;99096.16;25096;1314;3025878;-68
2022/07/07 01:30:19;;;;;;;7.10;3.40;;;;;;;25.05;42.05;99098.59;25066;1316;3027165;-69
2022/07/07 01:32:48;;;;;;;7.40;2.90;;;;;;;25.04;42.11;99101.80;25085;1316;3054789;-70
2022/07/07 01:35:17;;;;;;;9.20;3.60;;;;;;;24.99;42.14;99102.84;25083;1316;3026892;-68
2022/07/07 01:37:46;;;;;;;7.40;3.00;;;;;;;24.95;42.28;99100.64;25145;1316;3048873;-73
2022/07/07 01:40:16;;;;;;;11.40;3.50;;;;;;;24.92;42.33;99100.58;25143;1316;3026994;-65
2022/07/07 01:42:45;;;;;;;7.30;3.30;;;;;;;24.89;42.58;99101.41;25080;1315;3026870;-65
2022/07/07 01:45:15;;;;;;;8.30;3.00;;;;;;;24.88;42.51;99100.66;25070;1316;3051909;-70
2022/07/07 01:47:45;;;;;;;10.00;3.00;;;;;;;24.87;42.50;99100.60;25076;1316;3026478;-66
2022/07/07 01:50:14;;;;;;;7.20;3.20;;;;;;;24.79;42.67;99105.11;25088;1315;3026762;-67
2022/07/07 01:52:43;;;;;;;11.60;3.10;;;;;;;24.81;42.61;99103.46;25019;1315;3051027;-63
2022/07/07 01:55:12;;;;;;;10.80;3.90;;;;;;;24.80;42.68;99100.05;25104;1316;3027065;-64
2022/07/07 01:57:41;;;;;;;7.60;2.90;;;;;;;24.78;42.52;99105.39;25021;1316;3068668;-64
2022/07/07 02:00:12;;;;;;;7.10;3.10;;;;;;;24.76;42.55;99104.95;25122;1314;3026420;-66
2022/07/07 02:02:41;;;;;;;8.50;3.30;;;;;;;24.72;42.80;99108.71;25079;1316;3050861;-66
2022/07/07 02:05:10;;;;;;;14.80;3.30;;;;;;;24.69;42.61;99109.27;25127;1316;3028584;-68
2022/07/07 02:07:39;;;;;;;8.10;2.90;;;;;;;24.71;42.42;99104.83;25095;1314;3054927;-70
2022/07/07 02:10:08;;;;;;;8.50;3.60;;;;;;;24.76;42.12;99103.39;25117;1316;3026536;-68
2022/07/07 02:12:37;;;;;;;13.10;3.60;;;;;;;24.77;41.94;99101.59;25050;1316;3051981;-66
2022/07/07 02:15:07;;;;;;;12.80;3.40;;;;;;;24.81;41.77;99103.42;25124;1315;3026286;-65
2022/07/07 02:17:39;;;;;;;10.60;3.30;;;;;;;24.81;42.00;99103.08;25029;1316;3058997;-68
2022/07/07 02:20:09;;;;;;;11.10;3.70;;;;;;;24.79;42.05;99099.52;25124;1316;3026373;-68
2022/07/07 02:22:38;;;;;;;6.60;3.10;;;;;;;24.81;42.24;99101.27;25095;1315;3055045;-63
2022/07/07 02:25:07;;;;;;;13.90;3.10;;;;;;;24.84;42.20;99099.02;25064;1315;3026745;-69
2022/07/07 02:27:36;;;;;;;10.70;3.70;;;;;;;24.79;42.30;99100.42;25095;1316;3054406;-68
2022/07/07 02:30:08;;;;;;;11.40;3.00;;;;;;;24.78;42.42;99104.88;25089;1316;3026392;-65
2022/07/07 02:32:38;;;;;;;9.80;3.10;;;;;;;24.80;42.43;99106.80;25116;1316;3026777;-64
2022/07/07 02:35:08;;;;;;;9.70;3.00;;;;;;;24.80;42.56;99108.70;25068;1316;3026859;-68
2022/07/07 02:37:38;;;;;;;11.30;3.50;;;;;;;24.77;42.71;99113.05;25112;1316;3053468;-68
2022/07/07 02:40:08;;;;;;;10.50;3.50;;;;;;;24.79;42.64;99115.71;25068;1316;3026424;-62
2022/07/07 02:42:37;;;;;;;7.90;3.10;;;;;;;24.82;42.68;99116.36;25055;1316;3053869;-68
2022/07/07 02:45:07;;;;;;;15.70;3.30;;;;;;;24.80;42.90;99117.50;25131;1314;3026851;-64
2022/07/07 02:47:37;;;;;;;8.10;3.10;;;;;;;24.77;42.79;99115.45;25072;1316;3049272;-67
2022/07/07 02:50:06;;;;;;;9.70;3.10;;;;;;;24.78;42.40;99114.93;25141;1314;3026116;-68
2022/07/07 02:52:35;;;;;;;4.50;2.70;;;;;;;24.79;42.32;99110.19;25058;1316;3071652;-65
2022/07/07 02:55:05;;;;;;;5.20;3.00;;;;;;;24.81;42.27;99110.57;24701;1315;3556516;-63
2022/07/07 02:57:34;;;;;;;15.90;3.70;;;;;;;24.83;41.79;99109.42;25118;1316;3051244;-70
2022/07/07 03:00:06;;;;;;;5.80;3.10;;;;;;;24.84;41.87;99114.20;25089;1316;3026474;-66
2022/07/07 03:02:36;;;;;;;9.00;3.90;;;;;;;24.89;41.40;99112.87;25111;1316;3026510;-65
2022/07/07 03:05:06;;;;;;;7.40;3.00;;;;;;;24.93;41.46;99112.73;25065;1316;3026796;-63
2022/07/07 03:07:35;;;;;;;8.30;3.30;;;;;;;24.96;41.50;99110.84;25043;1316;3067853;-65
2022/07/07 03:10:06;;;;;;;6.70;3.10;;;;;;;25.02;41.55;99111.05;25090;1316;3026168;-64
2022/07/07 03:12:37;;;;;;;9.40;3.20;;;;;;;25.06;41.67;99112.33;25047;1316;3026265;-73
2022/07/07 03:15:07;;;;;;;7.80;2.90;;;;;;;25.07;41.92;99109.23;25112;1316;3026453;-69
2022/07/07 03:17:40;;;;;;;7.80;3.10;;;;;;;25.09;41.91;99105.61;25090;1316;3047930;-63
2022/07/07 03:20:10;;;;;;;10.70;3.00;;;;;;;25.15;42.04;99109.04;25016;1316;3028578;-66
2022/07/07 03:22:40;;;;;;;10.40;2.90;;;;;;;25.16;42.42;99106.40;25130;1315;3026566;-64
2022/07/07 03:25:10;;;;;;;18.40;3.20;;;;;;;25.17;42.12;99111.32;25009;1316;3026499;-66
2022/07/07 03:27:39;;;;;;;8.90;3.00;;;;;;;25.19;41.95;99112.95;25042;1316;3027616;-66
2022/07/07 03:30:12;;;;;;;15.40;3.60;;;;;;;25.21;41.81;99117.76;25103;1314;3026549;-66
2022/07/07 03:32:41;;;;;;;15.30;3.50;;;;;;;25.23;41.43;99113.52;25088;1314;3026571;-61
2022/07/07 03:35:10;;;;;;;9.30;3.50;;;;;;;25.27;40.98;99117.14;25078;1314;3026915;-66
2022/07/07 03:37:39;;;;;;;6.70;2.80;;;;;;;25.31;41.09;99122.75;25042;1316;3055397;-63
2022/07/07 03:40:09;;;;;;;8.10;3.20;;;;;;;25.36;40.78;99121.81;25113;1315;3026359;-65
2022/07/07 03:42:38;;;;;;;7.00;2.70;;;;;;;25.41;40.79;99123.83;25124;1315;3049927;-63
2022/07/07 03:45:08;;;;;;;6.30;3.20;;;;;;;25.48;41.21;99131.15;25051;1316;3026850;-66
2022/07/07 03:47:38;;;;;;;8.10;3.60;;;;;;;25.55;41.59;99129.54;25111;1316;3059164;-64
2022/07/07 03:50:08;;;;;;;7.20;2.60;;;;;;;25.61;41.84;99128.54;25086;1316;3026845;-67
2022/07/07 03:52:37;;;;;;;9.20;3.20;;;;;;;25.66;41.92;99125.45;25067;1316;3055011;-66
2022/07/07 03:55:08;;;;;;;7.90;3.20;;;;;;;25.68;41.25;99132.87;25099;1316;3026772;-63
2022/07/07 03:57:38;;;;;;;14.50;3.60;;;;;;;25.72;41.12;99129.20;25075;1316;3056317;-66
2022/07/07 04:00:08;;;;;;;12.80;3.80;;;;;;;25.76;41.13;99131.95;25042;1316;3026394;-63
2022/07/07 04:02:37;;;;;;;9.70;4.00;;;;;;;25.80;40.99;99133.17;25047;1316;3026595;-63
2022/07/07 04:05:07;;;;;;;15.90;3.90;;;;;;;25.83;40.86;99134.00;25071;1316;3026297;-68
2022/07/07 04:07:37;;;;;;;7.80;3.60;;;;;;;25.88;40.78;99132.01;25051;1316;3054916;-64
2022/07/07 04:10:07;;;;;;;11.00;4.20;;;;;;;25.92;41.11;99130.41;25075;1316;3026406;-65
2022/07/07 04:12:36;;;;;;;9.60;3.20;;;;;;;25.98;41.50;99128.44;25063;1316;3055207;-64
2022/07/07 04:15:06;;;;;;;11.00;3.80;;;;;;;26.03;41.75;99131.45;25087;1316;3026172;-68
2022/07/07 04:17:35;;;;;;;13.10;3.70;;;;;;;26.04;41.81;99133.50;25090;1312;3047901;-63
2022/07/07 04:20:33;;;;;;;13.60;4.10;;;;;;;26.14;42.71;99134.90;31510;1318;3026444;-62
2022/07/07 04:23:01;;;;;;;10.10;4.60;;;;;;;26.36;42.66;99133.83;24938;1321;3026640;-66
2022/07/07 04:25:31;;;;;;;12.50;4.80;;;;;;;26.57;42.86;99133.87;24951;1321;3026441;-63
2022/07/07 04:27:59;;;;;;;13.20;4.60;;;;;;;26.49;42.97;99139.56;25009;1316;3048403;-64
2022/07/07 04:30:28;;;;;;;11.40;4.40;;;;;;;26.43;43.57;99140.30;25046;1315;3026330;-63
2022/07/07 04:32:58;;;;;;;19.80;5.30;;;;;;;26.42;42.77;99135.58;24852;1316;3293554;-65
2022/07/07 04:35:27;;;;;;;15.80;4.60;;;;;;;26.42;42.50;99136.20;25056;1313;3026597;-62
2022/07/07 04:37:56;;;;;;;10.70;5.50;;;;;;;26.42;42.12;99137.33;25094;1315;3048787;-64
2022/07/07 04:40:26;;;;;;;18.40;4.70;;;;;;;26.42;41.45;99136.13;25024;1313;3026729;-65
2022/07/07 04:42:55;;;;;;;19.80;4.80;;;;;;;26.45;40.19;99133.94;25076;1315;3055243;-65
2022/07/07 04:45:24;;;;;;;9.20;4.30;;;;;;;26.49;39.46;99136.38;25103;1315;3026412;-63
2022/07/07 04:47:53;;;;;;;7.10;3.40;;;;;;;26.48;37.30;99137.17;25045;1315;3026276;-64
2022/07/07 04:50:22;;;;;;;14.70;3.60;;;;;;;26.51;36.77;99137.33;25127;1315;3054748;-66
2022/07/07 04:52:52;;;;;;;7.60;2.90;;;;;;;26.55;35.25;99134.07;25033;1315;3026461;-66
2022/07/07 04:55:21;;;;;;;15.10;3.00;;;;;;;26.61;34.92;99139.50;25042;1315;3048147;-63
2022/07/07 04:57:50;;;;;;;12.70;3.10;;;;;;;26.63;34.48;99137.73;25150;1315;3026497;-66
2022/07/07 05:00:19;;;;;;;8.40;3.10;;;;;;;26.63;34.72;99141.49;25077;1315;3057991;-66
2022/07/07 05:02:48;;;;;;;14.40;2.90;;;;;;;26.67;35.03;99142.54;25072;1315;3027826;-62
2022/07/07 05:05:17;;;;;;;11.50;3.00;;;;;;;26.72;35.00;99142.86;25050;1315;3054063;-63
2022/07/07 05:07:46;;;;;;;8.90;3.00;;;;;;;26.72;34.25;99137.43;25205;1315;3026683;-63
2022/07/07 05:10:18;;;;;;;14.10;2.80;;;;;;;26.72;33.93;99140.63;25255;1315;3055444;-64
2022/07/07 05:12:47;;;;;;;6.20;2.60;;;;;;;26.76;33.04;99139.30;25133;1315;3027041;-61
2022/07/07 05:15:17;;;;;;;13.20;3.60;;;;;;;26.80;32.50;99138.55;25095;1315;3051950;-66
2022/07/07 05:17:46;;;;;;;10.60;2.90;;;;;;;26.81;33.23;99143.07;25094;1315;3026851;-63
2022/07/07 05:20:15;;;;;;;6.30;2.90;;;;;;;26.77;32.87;99142.62;25042;1315;3070720;-65
2022/07/07 05:22:44;;;;;;;10.80;3.10;;;;;;;26.83;32.81;99139.80;25092;1315;3026686;-64
2022/07/07 05:25:13;;;;;;;7.60;2.80;;;;;;;26.89;32.97;99140.14;25052;1314;3053083;-64
2022/07/07 05:27:44;;;;;;;9.60;3.20;;;;;;;26.95;32.74;99140.20;25063;1315;3026268;-66
2022/07/07 05:30:13;;;;;;;9.30;3.30;;;;;;;26.99;33.01;99139.27;25050;1315;3027117;-65
2022/07/07 05:32:44;;;;;;;13.20;3.50;;;;;;;26.99;32.89;99141.41;25118;1315;3026413;-62
2022/07/07 05:35:13;;;;;;;11.90;3.60;;;;;;;27.03;33.68;99139.95;25089;1314;3026325;-65
2022/07/07 05:37:42;;;;;;;10.40;3.40;;;;;;;27.05;33.99;99140.95;25068;1315;3050687;-63
2022/07/07 05:40:11;;;;;;;9.80;3.50;;;;;;;27.14;34.25;99139.58;25074;1315;3026628;-63
2022/07/07 05:42:40;;;;;;;11.90;2.80;;;;;;;27.20;34.33;99141.05;25073;1315;3069319;-67
2022/07/07 05:45:10;;;;;;;11.80;2.70;;;;;;;27.21;33.57;99141.02;25046;1315;3026792;-64
2022/07/07 05:47:39;;;;;;;9.40;2.40;;;;;;;27.17;32.88;99138.91;25046;1315;3052940;-65
2022/07/07 05:50:09;;;;;;;10.60;2.70;;;;;;;27.17;32.94;99140.95;25099;1315;3026627;-66
2022/07/07 05:52:38;;;;;;;10.80;2.60;;;;;;;27.21;32.27;99137.86;25112;1315;3055117;-64
2022/07/07 05:55:07;;;;;;;12.80;2.70;;;;;;;27.24;32.25;99135.26;25079;1315;3026941;-65
2022/07/07 05:57:38;;;;;;;8.40;2.60;;;;;;;27.28;32.71;99136.08;25111;1315;3051303;-65
2022/07/07 06:00:07;;;;;;;4.70;2.10;;;;;;;27.39;32.68;99138.35;25048;1315;3027064;-66
2022/07/07 06:02:43;;;;;;;11.30;2.50;;;;;;;27.52;32.62;99135.34;25059;1315;3058601;-66
2022/07/07 06:05:12;;;;;;;6.10;1.90;;;;;;;27.58;32.30;99133.88;25073;1315;3026691;-63
2022/07/07 06:07:43;;;;;;;12.40;2.10;;;;;;;27.66;32.15;99133.36;25072;1315;3026311;-65
2022/07/07 06:10:15;;;;;;;11.10;2.30;;;;;;;27.73;31.96;99128.10;25131;1315;3026581;-60
2022/07/07 06:12:44;;;;;;;11.70;2.10;;;;;;;27.73;31.24;99130.77;25089;1315;3026343;-63
2022/07/07 06:15:14;;;;;;;10.60;2.00;;;;;;;27.72;30.36;99129.14;25021;1315;3029236;-68
2022/07/07 06:17:47;;;;;;;12.40;2.80;;;;;;;27.77;30.53;99132.23;25094;1315;3052776;-64
2022/07/07 06:20:16;;;;;;;9.80;2.40;;;;;;;27.77;30.81;99128.73;25120;1315;3026660;-63
2022/07/07 06:22:45;;;;;;;9.80;2.60;;;;;;;27.83;31.24;99129.21;25074;1315;3027336;-64
2022/07/07 06:25:14;;;;;;;13.20;2.50;;;;;;;27.93;31.50;99129.83;25108;1315;3052877;-64
2022/07/07 06:27:43;;;;;;;8.30;2.00;;;;;;;28.05;30.73;99127.65;25024;1315;3026463;-63
2022/07/07 06:30:13;;;;;;;4.00;1.80;;;;;;;28.11;30.38;99130.04;25098;1315;3026265;-66
2022/07/07 06:32:42;;;;;;;8.00;1.90;;;;;;;28.16;30.71;99128.84;25056;1315;3053675;-64
2022/07/07 06:35:12;;;;;;;13.50;2.50;;;;;;;28.24;30.71;99130.21;25041;1315;3026630;-64
2022/07/07 06:37:41;;;;;;;7.00;1.80;;;;;;;28.39;30.86;99134.61;25076;1315;3026545;-62
2022/07/07 06:40:11;;;;;;;11.70;2.50;;;;;;;28.49;30.66;99135.13;25178;1315;3026551;-63
2022/07/07 06:42:40;;;;;;;11.10;2.40;;;;;;;28.61;30.60;99130.14;25083;1315;3071643;-65
2022/07/07 06:45:13;;;;;;;7.80;1.90;;;;;;;28.75;30.63;99133.25;25076;1315;3051635;-64
2022/07/07 06:47:42;;;;;;;8.50;2.00;;;;;;;28.84;30.45;99124.55;25123;1315;3027078;-64
2022/07/07 06:50:11;;;;;;;15.30;2.20;;;;;;;28.91;29.77;99128.64;25053;1315;3068833;-64
2022/07/07 06:52:40;;;;;;;11.90;2.00;;;;;;;29.01;30.08;99130.92;25093;1315;3026801;-64
2022/07/07 06:55:10;;;;;;;6.30;2.10;;;;;;;29.09;29.47;99128.72;25072;1315;3052635;-62
2022/07/07 06:57:39;;;;;;;12.70;2.10;;;;;;;29.18;29.36;99130.23;25024;1315;3026627;-66
2022/07/07 07:00:10;;;;;;;8.00;1.80;;;;;;;29.26;29.01;99130.99;25059;1315;3026894;-64
2022/07/07 07:02:43;;;;;;;12.10;1.70;;;;;;;29.32;28.17;99132.86;25068;1315;3027892;-65
2022/07/07 07:05:12;;;;;;;4.70;1.70;;;;;;;29.41;27.68;99134.68;25138;1315;3026259;-65
2022/07/07 07:08:01;;;;;;;13.50;1.90;;;;;;;29.48;26.65;99130.70;25051;1315;3055408;-64
2022/07/07 07:10:30;;;;;;;7.90;2.10;;;;;;;29.48;26.07;99136.94;25095;1315;3026873;-64
2022/07/07 07:12:59;;;;;;;16.60;2.10;;;;;;;29.49;25.70;99132.11;25048;1315;3026729;-63
2022/07/07 07:15:28;;;;;;;11.90;1.40;;;;;;;29.56;26.37;99132.52;25076;1315;3058316;-63
2022/07/07 07:17:57;;;;;;;10.80;1.80;;;;;;;29.65;25.53;99131.42;25037;1315;3026429;-65
2022/07/07 07:20:26;;;;;;;11.80;1.90;;;;;;;29.69;25.08;99134.70;25110;1315;3055155;-65
2022/07/07 07:22:55;;;;;;;7.40;1.80;;;;;;;29.78;24.82;99135.88;25055;1315;3027627;-65
2022/07/07 07:25:24;;;;;;;7.30;1.40;;;;;;;29.88;24.47;99132.88;25075;1314;3054433;-63
2022/07/07 07:27:53;;;;;;;11.80;1.70;;;;;;;29.97;24.39;99129.42;25048;1315;3028539;-65
2022/07/07 07:30:22;;;;;;;11.20;1.90;;;;;;;29.92;23.84;99129.38;25058;1315;3050961;-62
2022/07/07 07:32:51;;;;;;;12.50;1.70;;;;;;;30.04;23.83;99128.75;25055;1315;3026625;-63
2022/07/07 07:35:20;;;;;;;7.10;1.70;;;;;;;30.14;23.66;99125.20;25104;1315;3026549;-63
2022/07/07 07:37:49;;;;;;;13.70;2.00;;;;;;;30.22;23.98;99117.70;25012;1315;3048750;-66
2022/07/07 07:40:18;;;;;;;9.20;1.50;;;;;;;30.39;24.42;99122.20;25090;1315;3026442;-65
2022/07/07 07:42:47;;;;;;;4.00;1.70;;;;;;;30.45;24.38;99122.34;25031;1315;3070357;-63
2022/07/07 07:45:16;;;;;;;8.10;1.70;;;;;;;30.46;24.77;99125.34;25119;1315;3026563;-65
2022/07/07 07:47:46;;;;;;;9.40;1.80;;;;;;;30.64;24.40;99125.11;25071;1313;3049839;-62
2022/07/07 07:50:18;;;;;;;5.30;1.80;;;;;;;30.80;24.83;99125.94;25128;1315;3027118;-66
2022/07/07 07:52:48;;;;;;;7.20;1.90;;;;;;;30.89;24.63;99122.38;25056;1315;3026283;-64
2022/07/07 07:55:19;;;;;;;13.80;1.70;;;;;;;30.97;23.92;99123.16;25061;1315;3026583;-64
2022/07/07 07:57:49;;;;;;;8.00;1.50;;;;;;;31.08;24.10;99120.14;25138;1315;3027688;-64
2022/07/07 08:00:19;;;;;;;18.10;1.80;;;;;;;31.23;24.40;99122.19;25128;1315;3026823;-64
2022/07/07 08:02:49;;;;;;;5.90;1.40;;;;;;;31.37;23.86;99123.25;25044;1315;3026826;-63
2022/07/07 08:05:18;;;;;;;13.30;1.70;;;;;;;31.47;23.09;99122.65;25083;1315;3026228;-63
2022/07/07 08:07:47;;;;;;;5.20;1.50;;;;;;;31.54;22.67;99122.09;25084;1315;3058656;-65
2022/07/07 08:10:18;;;;;;;14.80;1.50;;;;;;;31.62;21.99;99123.05;25065;1315;3026620;-63
2022/07/07 08:13:12;;;;;;;7.60;1.60;;;;;;;31.66;21.36;99122.17;25077;1315;3052999;-64
2022/07/07 08:15:41;;;;;;;7.70;1.90;;;;;;;31.64;20.90;99120.35;25041;1315;3026222;-66
2022/07/07 08:18:11;;;;;;;8.70;1.40;;;;;;;31.70;20.94;99125.69;25035;1314;3050496;-64
2022/07/07 08:20:41;;;;;;;7.20;1.30;;;;;;;31.72;20.06;99120.64;25060;1315;3026516;-60
2022/07/07 08:23:11;;;;;;;5.80;1.30;;;;;;;31.67;20.22;99125.05;25052;1315;3026581;-63
2022/07/07 08:25:40;;;;;;;7.60;1.50;;;;;;;31.75;20.49;99125.36;25069;1313;3026400;-62
2022/07/07 08:28:09;;;;;;;6.70;1.40;;;;;;;31.82;20.53;99120.67;25103;1313;3055533;-63
2022/07/07 08:30:39;;;;;;;4.80;1.40;;;;;;;31.84;20.38;99127.16;25072;1315;3026943;-62
2022/07/07 08:33:08;;;;;;;5.70;1.40;;;;;;;31.91;20.66;99122.96;25079;1313;3026484;-62
2022/07/07 08:35:37;;;;;;;7.70;1.80;;;;;;;31.95;20.60;99122.71;25055;1315;3051958;-64
2022/07/07 08:38:06;;;;;;;8.70;1.50;;;;;;;32.02;20.68;99123.66;25104;1313;3026521;-62
2022/07/07 08:40:36;;;;;;;8.50;1.70;;;;;;;32.16;20.84;99120.19;25080;1315;3026978;-61
2022/07/07 08:43:05;;;;;;;7.10;1.70;;;;;;;32.29;21.03;99120.11;25044;1313;3026324;-65
2022/07/07 08:45:34;;;;;;;9.50;1.80;;;;;;;32.35;21.00;99122.77;25088;1313;3026733;-63
2022/07/07 08:48:03;;;;;;;7.00;1.70;;;;;;;32.38;20.85;99123.02;25040;1315;3070535;-63
2022/07/07 08:50:34;;;;;;;9.60;1.60;;;;;;;32.47;20.75;99120.48;25083;1315;3027458;-60
2022/07/07 08:53:03;;;;;;;4.90;1.70;;;;;;;32.58;20.90;99118.80;25075;1315;3027070;-64
2022/07/07 08:55:35;;;;;;;4.10;1.80;;;;;;;32.78;20.63;99120.52;25109;1316;3026543;-64
2022/07/07 08:58:04;;;;;;;11.70;1.70;;;;;;;32.87;20.24;99113.22;25126;1313;3049929;-63
2022/07/07 09:00:34;;;;;;;7.10;1.50;;;;;;;32.86;20.36;99109.93;25049;1315;3026907;-63
2022/07/07 09:03:05;;;;;;;8.90;1.70;;;;;;;32.98;20.59;99113.33;25058;1313;3026643;-69
2022/07/07 09:05:37;;;;;;;6.50;1.70;;;;;;;33.12;20.07;99105.73;25067;1315;3048698;-67
2022/07/07 09:08:20;;;;;;;3.90;1.30;;;;;;;33.22;19.71;99108.61;25074;1314;3026765;-67
2022/07/07 09:10:49;;;;;;;4.30;1.70;;;;;;;33.26;19.64;99105.63;25039;1315;3053645;-63
2022/07/07 09:13:19;;;;;;;7.40;1.60;;;;;;;33.29;19.54;99102.31;25197;1315;3026783;-63
2022/07/07 09:15:51;;;;;;;8.60;1.90;;;;;;;33.42;19.30;99103.63;25294;1313;3030104;-66
2022/07/07 09:18:30;;;;;;;4.00;1.50;;;;;;;33.41;19.35;99103.34;25379;1313;3026718;-64
2022/07/07 09:21:01;;;;;;;12.90;2.00;;;;;;;33.43;19.27;99100.21;25173;1313;3051259;-70
2022/07/07 09:23:31;;;;;;;7.70;1.40;;;;;;;33.43;19.09;99100.70;25107;1313;3026524;-64
2022/07/07 09:26:00;;;;;;;5.30;2.10;;;;;;;33.43;18.96;99100.25;25113;1316;3026559;-65
2022/07/07 09:28:31;;;;;;;2.90;1.20;;;;;;;33.41;19.09;99106.71;25097;1313;3026708;-67
2022/07/07 09:31:00;;;;;;;6.50;1.40;;;;;;;33.51;18.84;99099.70;25078;1313;3026908;-63
2022/07/07 09:33:29;;;;;;;4.70;1.30;;;;;;;33.55;18.75;99094.21;25085;1313;3048833;-65
2022/07/07 09:38:45;;;;;;;7.60;1.70;;;;;;;33.77;18.72;99092.08;25080;1313;3071358;-64
2022/07/07 09:41:16;;;;;;;5.80;1.70;;;;;;;33.89;18.62;99091.36;25122;1313;3026309;-66
2022/07/07 09:43:51;;;;;;;7.00;1.70;;;;;;;34.02;18.39;99091.23;25040;1313;3028707;-64
2022/07/07 09:46:23;;;;;;;14.80;2.00;;;;;;;33.98;18.23;99092.05;25065;1313;3055276;-66
2022/07/07 09:48:54;;;;;;;17.20;2.40;;;;;;;34.10;18.56;99096.48;25093;1313;3029512;-62
2022/07/07 09:51:27;;;;;;;6.40;1.80;;;;;;;34.16;18.31;99094.86;25070;1313;3051762;-66
2022/07/07 09:53:58;;;;;;;14.10;1.90;;;;;;;34.18;18.54;99099.13;25095;1315;3026780;-66
2022/07/07 09:56:38;;;;;;;10.30;1.60;;;;;;;34.27;18.59;99098.88;25087;1313;3058259;-64
2022/07/07 09:59:11;;;;;;;9.10;1.40;;;;;;;34.39;18.27;99098.41;25054;1313;3049428;-63
2022/07/07 10:01:44;;;;;;;10.10;1.70;;;;;;;34.43;18.12;99095.02;25121;1315;3026940;-63
2022/07/07 10:04:17;;;;;;;10.40;1.90;;;;;;;34.47;18.77;99090.80;25132;1313;3053487;-67
2022/07/07 10:06:46;;;;;;;7.00;1.70;;;;;;;34.57;18.81;99089.34;25169;1314;3026482;-66
2022/07/07 10:09:20;;;;;;;6.00;1.60;;;;;;;34.60;18.88;99091.34;25054;1313;3027158;-68
2022/07/07 10:11:51;;;;;;;8.90;1.60;;;;;;;34.65;18.21;99091.77;25171;1315;3053778;-65
2022/07/07 10:14:22;;;;;;;3.60;1.50;;;;;;;34.63;18.16;99091.36;25105;1313;3026463;-65
2022/07/07 10:16:52;;;;;;;7.40;1.80;;;;;;;34.60;17.35;99084.41;25132;1313;3026701;-65
2022/07/07 10:19:23;;;;;;;8.70;1.60;;;;;;;34.58;17.71;99083.85;25073;1313;3027533;-66
2022/07/07 10:21:53;;;;;;;7.40;1.70;;;;;;;34.51;17.65;99081.28;25119;1315;3028137;-65
2022/07/07 10:24:25;;;;;;;10.90;2.10;;;;;;;34.54;18.05;99081.70;25094;1313;3026931;-65
2022/07/07 10:27:01;;;;;;;7.10;1.50;;;;;;;34.55;17.76;99079.46;25065;1315;3027086;-65
2022/07/07 10:29:43;;;;;;;21.30;1.90;;;;;;;34.57;17.79;99077.56;25113;1313;3048321;-65
2022/07/07 10:32:14;;;;;;;6.20;1.80;;;;;;;34.71;17.50;99070.95;25073;1314;3054781;-65
2022/07/07 10:34:51;;;;;;;8.90;1.30;;;;;;;34.77;17.21;99069.10;25091;1313;3026729;-66
2022/07/07 10:37:20;;;;;;;11.20;1.70;;;;;;;34.82;17.31;99071.54;25147;1313;3056403;-63
2022/07/07 10:39:53;;;;;;;3.40;1.50;;;;;;;34.86;17.75;99070.70;25083;1315;3026890;-68
2022/07/07 10:42:26;;;;;;;4.80;1.30;;;;;;;34.90;17.37;99070.08;25074;1313;3027245;-65
2022/07/07 10:44:56;;;;;;;3.60;1.50;;;;;;;34.94;16.88;99065.58;25060;1313;3027759;-66
2022/07/07 10:47:25;;;;;;;6.50;1.60;;;;;;;35.02;16.62;99060.88;25067;1313;3026489;-65
2022/07/07 10:49:55;;;;;;;8.70;1.80;;;;;;;35.14;16.81;99060.27;25141;1313;3026250;-62
2022/07/07 10:52:44;;;;;;;7.50;1.70;;;;;;;35.24;16.43;99056.94;25096;1313;3053831;-65
2022/07/07 10:55:13;;;;;;;6.90;1.50;;;;;;;35.31;16.32;99059.61;25035;1313;3069749;-67
2022/07/07 10:57:43;;;;;;;3.50;1.50;;;;;;;35.35;16.58;99057.30;25193;1313;3026622;-65
2022/07/07 11:00:25;;;;;;;5.10;1.70;;;;;;;35.40;16.42;99062.94;25110;1315;3027575;-67
2022/07/07 11:02:57;;;;;;;6.10;1.20;;;;;;;35.41;15.77;99062.73;25108;1313;3055058;-63
2022/07/07 11:05:28;;;;;;;12.50;1.60;;;;;;;35.42;16.06;99063.95;25132;1313;3027086;-65
2022/07/07 11:08:03;;;;;;;3.50;1.50;;;;;;;35.50;16.15;99063.97;25091;1313;3051711;-63
2022/07/07 11:10:42;;;;;;;5.60;1.70;;;;;;;35.56;15.70;99060.60;25135;1318;3026412;-63
2022/07/07 11:13:30;;;;;;;8.80;1.50;;;;;;;35.62;14.83;99061.33;25157;1313;3051609;-64
2022/07/07 11:16:05;;;;;;;6.90;1.40;;;;;;;35.76;14.94;99058.47;25066;1315;3071366;-64
2022/07/07 11:18:34;;;;;;;15.50;1.50;;;;;;;35.83;15.14;99054.64;25109;1315;3048869;-63
2022/07/07 11:21:04;;;;;;;6.10;1.40;;;;;;;35.97;15.34;99053.24;25073;1313;3039162;-65
2022/07/07 11:23:48;;;;;;;2.40;1.50;;;;;;;36.09;14.62;99055.88;25031;1313;3071081;-63
2022/07/07 11:26:19;;;;;;;5.80;1.60;;;;;;;36.23;14.18;99052.67;25848;1313;3049891;-64
2022/07/07 11:28:53;;;;;;;8.60;1.60;;;;;;;36.34;14.58;99051.30;25056;1313;3026334;-64
2022/07/07 11:31:22;;;;;;;6.10;1.40;;;;;;;36.35;14.40;99052.98;25789;1315;3051960;-65